Time;durP1;ratioP1;P1;durP2;ratioP2;P2;SDS_P1;SDS_P2;PMS_P1;PMS_P2;Temp;Humidity;BMP_temperature;BMP_pressure;BME280_temperature;BME280_humidity;BME280_pressure;Samples;Min_cycle;Max_cycle;Signal;HPM_P1;HPM_P2
2023/08/08 00:01:49;;;;;;;0.10;0.10;;;15.40;99.90;;;;;;5011952;28;20607;-80
2023/08/08 00:04:15;;;;;;;0.10;0.10;;;15.40;99.90;;;;;;5013297;28;20648;-80
2023/08/08 00:06:40;;;;;;;0.10;0.10;;;15.40;99.90;;;;;;5028196;28;20209;-80
2023/08/08 00:09:06;;;;;;;0.10;0.10;;;15.40;99.90;;;;;;5011696;28;20640;-80
2023/08/08 00:11:32;;;;;;;0.10;0.10;;;15.40;99.90;;;;;;5013557;28;20178;-80
2023/08/08 00:13:57;;;;;;;0.10;0.10;;;15.40;99.90;;;;;;5011121;28;20207;-80
2023/08/08 00:16:23;;;;;;;0.10;0.10;;;15.40;99.90;;;;;;5011615;28;20739;-79
2023/08/08 00:18:50;;;;;;;0.10;0.10;;;15.40;99.90;;;;;;5013381;28;20182;-80
2023/08/08 00:21:16;;;;;;;0.10;0.10;;;15.40;99.90;;;;;;5014143;28;20202;-80
2023/08/08 00:23:41;;;;;;;0.10;0.10;;;15.40;99.90;;;;;;5009566;28;20216;-80
2023/08/08 00:26:07;;;;;;;0.10;0.10;;;15.30;99.90;;;;;;5011708;28;20237;-80
2023/08/08 00:28:33;;;;;;;0.10;0.10;;;15.30;99.90;;;;;;5012346;28;20178;-80
2023/08/08 00:30:58;;;;;;;0.10;0.10;;;15.30;99.90;;;;;;5011910;28;20192;-80
2023/08/08 00:33:24;;;;;;;0.10;0.10;;;15.30;99.90;;;;;;5027168;28;20182;-80
2023/08/08 00:35:49;;;;;;;0.10;0.10;;;15.30;99.90;;;;;;5011481;28;20690;-80
2023/08/08 00:38:16;;;;;;;0.10;0.10;;;15.30;99.90;;;;;;5012839;28;20190;-80
2023/08/08 00:40:41;;;;;;;0.10;0.10;;;15.30;99.90;;;;;;5011645;28;20220;-80
2023/08/08 00:43:07;;;;;;;0.10;0.10;;;15.20;99.90;;;;;;5011577;28;20182;-80
2023/08/08 00:45:34;;;;;;;0.10;0.10;;;15.20;99.90;;;;;;5011234;28;20750;-80
2023/08/08 00:47:59;;;;;;;0.10;0.10;;;15.20;99.90;;;;;;5030262;28;20289;-80
2023/08/08 00:50:25;;;;;;;0.10;0.10;;;15.20;99.90;;;;;;5013669;28;20275;-81
2023/08/08 00:52:51;;;;;;;0.10;0.10;;;15.10;99.90;;;;;;5030843;28;20204;-80
2023/08/08 00:55:16;;;;;;;0.10;0.10;;;15.10;99.90;;;;;;5016537;28;20190;-80
2023/08/08 00:57:42;;;;;;;0.10;0.10;;;15.10;99.90;;;;;;5014741;28;20274;-80
2023/08/08 01:00:10;;;;;;;0.10;0.10;;;15.10;99.90;;;;;;5013166;28;20229;-80
2023/08/08 01:02:35;;;;;;;0.10;0.10;;;15.00;99.90;;;;;;5014778;28;20193;-80
2023/08/08 01:05:03;;;;;;;0.07;0.07;;;15.00;99.90;;;;;;5017084;28;20190;-80
2023/08/08 01:07:44;;;;;;;0.10;0.10;;;15.00;99.90;;;;;;5013082;28;20182;-81
2023/08/08 01:10:15;;;;;;;0.10;0.10;;;15.00;99.90;;;;;;5029263;28;20198;-80
2023/08/08 01:12:45;;;;;;;0.10;0.10;;;15.00;99.90;;;;;;5015247;28;20217;-79
2023/08/08 01:15:12;;;;;;;0.10;0.10;;;14.90;99.90;;;;;;5012999;28;20644;-80
2023/08/08 01:17:39;;;;;;;0.10;0.10;;;14.90;99.90;;;;;;5015062;28;20186;-80
2023/08/08 01:20:05;;;;;;;0.07;0.07;;;15.00;99.90;;;;;;5014495;28;20213;-80
2023/08/08 01:22:50;;;;;;;0.10;0.10;;;14.90;99.90;;;;;;5014337;28;20748;-80
2023/08/08 01:25:16;;;;;;;0.10;0.10;;;14.90;99.90;;;;;;5012345;28;20186;-80
2023/08/08 01:27:43;;;;;;;0.10;0.10;;;14.90;99.90;;;;;;5013604;28;20181;-80
2023/08/08 01:30:09;;;;;;;0.10;0.10;;;14.90;99.90;;;;;;5028799;28;20257;-80
2023/08/08 01:32:34;;;;;;;0.10;0.10;;;14.80;99.90;;;;;;5014587;28;20202;-80
2023/08/08 01:35:00;;;;;;;0.10;0.10;;;14.80;99.90;;;;;;5012343;28;20674;-80
2023/08/08 01:37:32;;;;;;;0.10;0.10;;;14.70;99.90;;;;;;5012189;28;20182;-80
2023/08/08 01:40:00;;;;;;;0.10;0.10;;;14.70;99.90;;;;;;5011817;28;20656;-79
2023/08/08 01:42:26;;;;;;;0.10;0.10;;;14.70;99.90;;;;;;5013445;28;20260;-80
2023/08/08 01:44:55;;;;;;;0.10;0.10;;;14.60;99.90;;;;;;5013964;28;20178;-80
2023/08/08 01:47:20;;;;;;;0.10;0.10;;;14.50;99.90;;;;;;5027551;28;20264;-80
2023/08/08 01:49:46;;;;;;;0.10;0.10;;;14.50;99.90;;;;;;5011199;28;20637;-80
2023/08/08 01:52:11;;;;;;;0.10;0.10;;;14.50;99.90;;;;;;5012397;28;20203;-80
2023/08/08 01:54:37;;;;;;;0.10;0.10;;;14.50;99.90;;;;;;5012481;28;20192;-81
2023/08/08 01:57:02;;;;;;;0.10;0.10;;;14.30;99.90;;;;;;5011864;28;20232;-80
2023/08/08 01:59:28;;;;;;;0.10;0.10;;;14.30;99.90;;;;;;5013890;28;20296;-80
2023/08/08 02:01:54;;;;;;;0.10;0.10;;;14.30;99.90;;;;;;5011063;28;20941;-80
2023/08/08 02:04:20;;;;;;;0.00;0.00;;;14.30;99.90;;;;;;5011325;28;20181;-81
2023/08/08 02:06:45;;;;;;;0.10;0.10;;;14.20;99.90;;;;;;5013084;28;20295;-80
2023/08/08 02:09:11;;;;;;;0.10;0.10;;;14.20;99.90;;;;;;5014142;28;20315;-80
2023/08/08 02:11:36;;;;;;;0.00;0.00;;;14.10;99.90;;;;;;5012667;28;20183;-80
2023/08/08 02:14:02;;;;;;;0.10;0.10;;;14.00;99.90;;;;;;5012506;28;20200;-80
2023/08/08 02:16:27;;;;;;;0.10;0.10;;;14.00;99.90;;;;;;5010700;28;20764;-80
2023/08/08 02:18:53;;;;;;;0.10;0.10;;;14.00;99.90;;;;;;5010918;28;20265;-80
2023/08/08 02:21:18;;;;;;;0.10;0.10;;;14.00;99.90;;;;;;5011623;28;20247;-80
2023/08/08 02:23:44;;;;;;;0.10;0.10;;;14.00;99.90;;;;;;5012423;28;20203;-80
2023/08/08 02:26:09;;;;;;;0.10;0.10;;;13.90;99.90;;;;;;5010974;28;20215;-80
2023/08/08 02:28:35;;;;;;;0.10;0.10;;;13.90;99.90;;;;;;5010406;28;20230;-80
2023/08/08 02:31:00;;;;;;;0.10;0.10;;;13.90;99.90;;;;;;5011266;28;20196;-80
2023/08/08 02:33:26;;;;;;;0.10;0.10;;;13.90;99.90;;;;;;5011594;28;20241;-81
2023/08/08 02:35:52;;;;;;;0.10;0.10;;;13.80;99.90;;;;;;5012670;28;20200;-80
2023/08/08 02:38:17;;;;;;;0.10;0.10;;;13.80;99.90;;;;;;5012953;28;20749;-80
2023/08/08 02:40:43;;;;;;;0.10;0.10;;;13.80;99.90;;;;;;5010369;28;20671;-80
2023/08/08 02:43:10;;;;;;;0.10;0.10;;;13.80;99.90;;;;;;5011200;28;20193;-80
2023/08/08 02:45:36;;;;;;;0.10;0.10;;;13.80;99.90;;;;;;5011703;28;20199;-80
2023/08/08 02:48:01;;;;;;;0.00;0.00;;;13.80;99.90;;;;;;5010652;28;20682;-80
2023/08/08 02:50:27;;;;;;;0.10;0.10;;;13.80;99.90;;;;;;5010688;28;20200;-80
2023/08/08 02:52:52;;;;;;;0.10;0.10;;;13.80;99.90;;;;;;5011862;28;20191;-80
2023/08/08 02:55:18;;;;;;;0.10;0.10;;;13.70;99.90;;;;;;5011630;28;20201;-80
2023/08/08 02:57:43;;;;;;;0.10;0.10;;;13.70;99.90;;;;;;5025419;28;20195;-80
2023/08/08 03:00:11;;;;;;;0.00;0.00;;;13.70;99.90;;;;;;5009918;28;20215;-80
2023/08/08 03:02:36;;;;;;;0.00;0.00;;;13.70;99.90;;;;;;5026305;28;20180;-80
2023/08/08 03:05:02;;;;;;;0.07;0.07;;;13.70;99.90;;;;;;5011414;28;20184;-80
2023/08/08 03:07:27;;;;;;;0.10;0.10;;;13.60;99.90;;;;;;5012027;28;20203;-81
2023/08/08 03:09:53;;;;;;;0.00;0.00;;;13.60;99.90;;;;;;5011080;28;20228;-80
2023/08/08 03:12:18;;;;;;;0.10;0.10;;;13.60;99.90;;;;;;5011567;28;20257;-80
2023/08/08 03:14:44;;;;;;;0.10;0.10;;;13.60;99.90;;;;;;5013921;28;20188;-80
2023/08/08 03:17:09;;;;;;;0.10;0.10;;;13.50;99.90;;;;;;5009543;28;20570;-80
2023/08/08 03:19:35;;;;;;;0.10;0.10;;;13.50;99.90;;;;;;5012486;28;21116;-80
2023/08/08 03:22:00;;;;;;;0.10;0.10;;;13.50;99.90;;;;;;5015527;28;20923;-80
2023/08/08 03:24:26;;;;;;;0.10;0.10;;;13.50;99.90;;;;;;5009336;28;20183;-80
2023/08/08 03:26:51;;;;;;;0.10;0.10;;;13.60;99.90;;;;;;5009563;28;20192;-80
2023/08/08 03:29:17;;;;;;;0.10;0.10;;;13.50;99.90;;;;;;5006357;28;20645;-80
2023/08/08 03:31:42;;;;;;;0.10;0.10;;;13.50;99.90;;;;;;5009426;28;20215;-80
2023/08/08 03:34:08;;;;;;;0.00;0.00;;;13.50;99.90;;;;;;5012444;28;20214;-80
2023/08/08 03:36:33;;;;;;;0.10;0.10;;;13.50;99.90;;;;;;5010249;28;20208;-80
2023/08/08 03:38:59;;;;;;;0.10;0.10;;;13.50;99.90;;;;;;5009505;28;20181;-80
2023/08/08 03:41:24;;;;;;;0.10;0.10;;;13.50;99.90;;;;;;5025306;28;20222;-80
2023/08/08 03:43:50;;;;;;;0.10;0.10;;;13.50;99.90;;;;;;5010363;28;20552;-80
2023/08/08 03:46:15;;;;;;;0.03;0.03;;;13.50;99.90;;;;;;5011172;28;20212;-80
2023/08/08 03:48:41;;;;;;;0.00;0.00;;;13.50;99.90;;;;;;5009612;28;20217;-80
2023/08/08 03:51:06;;;;;;;0.10;0.10;;;13.50;99.90;;;;;;5010497;28;20287;-80
2023/08/08 03:53:32;;;;;;;0.10;0.10;;;13.50;99.90;;;;;;5011206;28;20578;-80
2023/08/08 03:55:58;;;;;;;0.10;0.10;;;13.50;99.90;;;;;;5009402;28;20290;-80
2023/08/08 03:58:23;;;;;;;0.10;0.10;;;13.50;99.90;;;;;;5009973;28;20280;-80
2023/08/08 04:00:49;;;;;;;0.10;0.10;;;13.40;99.90;;;;;;5012876;28;20202;-80
2023/08/08 04:03:15;;;;;;;0.10;0.10;;;13.40;99.90;;;;;;5013028;28;20603;-80
2023/08/08 04:05:48;;;;;;;0.10;0.10;;;13.30;99.90;;;;;;5012205;28;20257;-80
2023/08/08 04:08:17;;;;;;;0.10;0.10;;;13.20;99.90;;;;;;5013276;28;20713;-80
2023/08/08 04:10:43;;;;;;;0.10;0.10;;;13.20;99.90;;;;;;5013387;28;20181;-80
2023/08/08 04:13:09;;;;;;;0.10;0.10;;;13.00;99.90;;;;;;5011543;28;20627;-80
2023/08/08 04:15:35;;;;;;;0.03;0.03;;;12.90;99.90;;;;;;5014222;28;20226;-80
2023/08/08 04:18:01;;;;;;;0.10;0.10;;;12.90;99.90;;;;;;5011125;28;20669;-81
2023/08/08 04:20:26;;;;;;;0.10;0.10;;;12.90;99.90;;;;;;5006943;28;20191;-81
2023/08/08 04:22:52;;;;;;;0.10;0.10;;;12.90;99.90;;;;;;5009936;28;20711;-80
2023/08/08 04:25:17;;;;;;;0.00;0.00;;;13.00;99.90;;;;;;5008618;28;21101;-82
2023/08/08 04:27:43;;;;;;;0.10;0.10;;;12.80;99.90;;;;;;5021769;28;20216;-81
2023/08/08 04:30:09;;;;;;;0.03;0.03;;;12.60;99.90;;;;;;5007668;28;20192;-81
2023/08/08 04:32:34;;;;;;;0.10;0.10;;;12.60;99.90;;;;;;5009557;28;20259;-80
2023/08/08 04:35:00;;;;;;;0.10;0.10;;;12.80;99.90;;;;;;5009893;28;20183;-80
2023/08/08 04:37:25;;;;;;;0.10;0.10;;;12.80;99.90;;;;;;5007308;28;20209;-81
2023/08/08 04:39:51;;;;;;;0.10;0.10;;;13.00;99.90;;;;;;5010401;28;20191;-81
2023/08/08 04:42:16;;;;;;;0.10;0.10;;;13.10;99.90;;;;;;5012442;28;20202;-85
2023/08/08 04:44:42;;;;;;;0.10;0.10;;;13.10;99.90;;;;;;5009328;28;20196;-83
2023/08/08 04:47:07;;;;;;;0.10;0.10;;;13.30;99.90;;;;;;5020901;28;20207;-84
2023/08/08 04:49:33;;;;;;;0.10;0.10;;;13.30;99.90;;;;;;5019250;28;20215;-82
2023/08/08 04:51:58;;;;;;;0.10;0.10;;;13.30;99.90;;;;;;5006991;28;20196;-81
2023/08/08 04:54:24;;;;;;;0.10;0.10;;;13.40;99.90;;;;;;5003979;28;20183;-80
2023/08/08 04:56:49;;;;;;;0.00;0.00;;;13.50;99.90;;;;;;5005480;28;20205;-82
2023/08/08 04:59:15;;;;;;;0.10;0.10;;;13.60;99.90;;;;;;5006818;28;20219;-81
2023/08/08 05:01:40;;;;;;;0.03;0.03;;;13.60;99.90;;;;;;5007873;28;20208;-85
2023/08/08 05:04:07;;;;;;;0.00;0.00;;;13.70;99.90;;;;;;5009779;28;20191;-82
2023/08/08 05:06:35;;;;;;;0.10;0.10;;;13.80;99.90;;;;;;5009234;28;20255;-82
2023/08/08 05:09:04;;;;;;;0.10;0.10;;;13.80;99.90;;;;;;5010146;28;20273;-84
2023/08/08 05:11:30;;;;;;;0.00;0.00;;;13.80;99.90;;;;;;5008706;28;20242;-83
2023/08/08 05:13:55;;;;;;;0.10;0.10;;;13.90;99.90;;;;;;5008501;28;20193;-83
2023/08/08 05:16:22;;;;;;;0.00;0.00;;;13.80;99.90;;;;;;5007497;28;20212;-84
2023/08/08 05:18:50;;;;;;;0.00;0.00;;;13.80;99.90;;;;;;5007979;28;20552;-83
2023/08/08 05:21:15;;;;;;;0.10;0.10;;;13.80;99.90;;;;;;5022483;28;20269;-84
2023/08/08 05:23:41;;;;;;;0.00;0.00;;;13.90;99.90;;;;;;5008991;28;20209;-84
2023/08/08 05:26:06;;;;;;;0.10;0.10;;;13.90;99.90;;;;;;5006124;28;20202;-85
2023/08/08 05:28:32;;;;;;;0.10;0.10;;;13.90;99.90;;;;;;5007433;28;20176;-83
2023/08/08 05:30:59;;;;;;;0.10;0.10;;;14.00;99.90;;;;;;5006019;28;20197;-83
2023/08/08 05:33:24;;;;;;;0.00;0.00;;;13.90;99.90;;;;;;5006514;28;20190;-85
2023/08/08 05:35:50;;;;;;;0.10;0.10;;;13.90;99.90;;;;;;5005487;28;20701;-84
2023/08/08 05:38:15;;;;;;;0.03;0.03;;;13.90;99.90;;;;;;5006518;28;20287;-83
2023/08/08 05:40:41;;;;;;;0.10;0.10;;;14.00;99.90;;;;;;5005486;28;20223;-83
2023/08/08 05:43:08;;;;;;;0.00;0.00;;;14.10;99.90;;;;;;5006330;28;20198;-83
2023/08/08 05:45:33;;;;;;;0.10;0.10;;;14.10;99.90;;;;;;5006214;28;21219;-85
2023/08/08 05:48:00;;;;;;;0.10;0.10;;;14.10;99.90;;;;;;5008301;28;20192;-84
2023/08/08 05:50:27;;;;;;;0.10;0.10;;;14.10;99.90;;;;;;5004514;28;20312;-85
2023/08/08 05:52:52;;;;;;;0.20;0.20;;;14.20;99.90;;;;;;5007423;28;20194;-83
2023/08/08 05:55:18;;;;;;;0.10;0.10;;;14.20;99.90;;;;;;5003558;28;20357;-83
2023/08/08 05:57:43;;;;;;;0.10;0.10;;;14.30;99.90;;;;;;5005210;28;20191;-83
2023/08/08 06:00:11;;;;;;;0.10;0.10;;;14.40;99.90;;;;;;5005349;28;20215;-84
2023/08/08 06:02:37;;;;;;;0.10;0.10;;;14.40;99.90;;;;;;5011581;28;20185;-83
2023/08/08 06:05:04;;;;;;;0.07;0.07;;;14.50;99.90;;;;;;5010812;28;20193;-83
2023/08/08 06:07:29;;;;;;;0.00;0.00;;;14.60;99.90;;;;;;5011799;28;20215;-82
2023/08/08 06:09:55;;;;;;;0.10;0.10;;;14.70;99.90;;;;;;5010461;28;20228;-84
2023/08/08 06:12:20;;;;;;;0.10;0.10;;;14.80;99.90;;;;;;5009186;28;20221;-83
2023/08/08 06:14:46;;;;;;;0.07;0.07;;;14.90;99.90;;;;;;5008163;28;20180;-84
2023/08/08 06:17:11;;;;;;;0.10;0.10;;;15.00;99.90;;;;;;5007555;28;20378;-83
2023/08/08 06:19:37;;;;;;;0.10;0.10;;;14.90;99.90;;;;;;5004734;28;20195;-83
2023/08/08 06:22:03;;;;;;;0.10;0.10;;;15.00;99.90;;;;;;5008306;28;20188;-84
2023/08/08 06:24:28;;;;;;;0.00;0.00;;;15.10;99.90;;;;;;5022196;28;20211;-84
2023/08/08 06:26:54;;;;;;;0.10;0.10;;;15.20;99.90;;;;;;5019717;28;20339;-84
2023/08/08 06:29:20;;;;;;;0.10;0.10;;;15.30;99.90;;;;;;5005449;28;20247;-83
2023/08/08 06:31:45;;;;;;;0.10;0.10;;;15.40;99.90;;;;;;5007870;28;20271;-82
2023/08/08 06:34:11;;;;;;;0.10;0.10;;;15.50;99.90;;;;;;5008199;28;20193;-83
2023/08/08 06:36:36;;;;;;;0.10;0.10;;;15.60;99.90;;;;;;5008477;28;21282;-85
2023/08/08 06:39:02;;;;;;;0.10;0.10;;;15.70;99.90;;;;;;5025498;28;20198;-82
2023/08/08 06:41:27;;;;;;;0.10;0.10;;;15.80;99.90;;;;;;5003834;28;20217;-82
2023/08/08 06:43:53;;;;;;;0.03;0.03;;;15.90;99.90;;;;;;5003893;28;20300;-83
2023/08/08 06:46:20;;;;;;;0.20;0.20;;;16.00;99.90;;;;;;5001926;28;20606;-83
2023/08/08 06:48:46;;;;;;;0.10;0.10;;;16.20;99.90;;;;;;5002963;28;20193;-83
2023/08/08 06:51:12;;;;;;;0.10;0.10;;;16.40;99.90;;;;;;5001568;28;20206;-83
2023/08/08 06:53:38;;;;;;;0.10;0.10;;;16.50;99.90;;;;;;5002365;28;20657;-82
2023/08/08 06:56:04;;;;;;;0.10;0.10;;;16.50;99.90;;;;;;5001549;28;20206;-83
2023/08/08 06:58:29;;;;;;;0.10;0.10;;;16.50;99.90;;;;;;5002550;28;20206;-83
2023/08/08 07:00:54;;;;;;;0.10;0.10;;;16.50;99.90;;;;;;5001382;28;20292;-83
2023/08/08 07:03:20;;;;;;;0.07;0.07;;;16.60;99.90;;;;;;4998748;28;20188;-82
2023/08/08 07:05:47;;;;;;;0.10;0.10;;;16.70;99.90;;;;;;5000835;28;20209;-83
2023/08/08 07:08:13;;;;;;;0.10;0.10;;;16.80;99.90;;;;;;5002921;28;20190;-83
2023/08/08 07:10:38;;;;;;;0.10;0.10;;;16.90;99.90;;;;;;5000908;28;20241;-83
2023/08/08 07:13:04;;;;;;;0.10;0.10;;;17.00;99.90;;;;;;5001957;28;20245;-83
2023/08/08 07:15:30;;;;;;;0.10;0.10;;;17.10;99.90;;;;;;5017445;28;20214;-83
2023/08/08 07:17:56;;;;;;;0.10;0.10;;;17.30;99.90;;;;;;5002275;28;20191;-83
2023/08/08 07:20:22;;;;;;;0.10;0.10;;;17.40;99.90;;;;;;5001715;28;20211;-83
2023/08/08 07:22:50;;;;;;;0.10;0.10;;;17.60;99.90;;;;;;5002243;28;20175;-83
2023/08/08 07:25:16;;;;;;;0.10;0.10;;;17.70;99.90;;;;;;5018229;28;20225;-83
2023/08/08 07:27:42;;;;;;;0.10;0.10;;;17.90;99.90;;;;;;5001431;28;20191;-83
2023/08/08 07:30:08;;;;;;;0.10;0.10;;;17.90;99.90;;;;;;5000185;28;20649;-83
2023/08/08 07:32:34;;;;;;;0.10;0.10;;;18.00;99.90;;;;;;5001461;28;20183;-83
2023/08/08 07:35:02;;;;;;;0.10;0.10;;;18.10;99.90;;;;;;5003601;28;20229;-83
2023/08/08 07:37:28;;;;;;;0.10;0.10;;;18.50;99.90;;;;;;5007384;28;20203;-83
2023/08/08 07:39:53;;;;;;;0.10;0.10;;;18.60;99.90;;;;;;5021619;28;20182;-83
2023/08/08 07:42:19;;;;;;;0.10;0.10;;;18.60;99.90;;;;;;5006447;28;20318;-83
2023/08/08 07:44:44;;;;;;;0.10;0.10;;;18.60;99.90;;;;;;5005199;28;20241;-83
2023/08/08 07:47:10;;;;;;;0.10;0.10;;;18.50;99.90;;;;;;5007112;28;20207;-83
2023/08/08 07:49:35;;;;;;;0.10;0.10;;;18.40;99.90;;;;;;5005647;28;20510;-84
2023/08/08 07:52:01;;;;;;;0.10;0.10;;;18.60;99.90;;;;;;5006104;28;20191;-83
2023/08/08 07:54:26;;;;;;;0.10;0.10;;;18.50;99.90;;;;;;5005813;28;20194;-83
2023/08/08 07:56:52;;;;;;;0.10;0.10;;;18.40;99.90;;;;;;5007097;28;20598;-82
2023/08/08 07:59:17;;;;;;;0.10;0.10;;;18.40;99.90;;;;;;5021157;28;20191;-83
2023/08/08 08:01:43;;;;;;;0.10;0.10;;;18.50;99.90;;;;;;5005533;28;20206;-83
2023/08/08 08:04:08;;;;;;;0.10;0.10;;;18.60;99.90;;;;;;5006159;28;20557;-84
2023/08/08 08:06:34;;;;;;;0.10;0.10;;;18.70;99.90;;;;;;5021036;28;20269;-82
2023/08/08 08:08:59;;;;;;;0.10;0.10;;;18.80;99.90;;;;;;5004998;28;20667;-83
2023/08/08 08:11:25;;;;;;;0.10;0.10;;;19.00;99.90;;;;;;5004028;28;20601;-83
2023/08/08 08:13:51;;;;;;;0.10;0.10;;;19.00;99.90;;;;;;5006945;28;20202;-83
2023/08/08 08:16:16;;;;;;;0.10;0.10;;;19.10;99.90;;;;;;5020993;28;20218;-83
2023/08/08 08:18:42;;;;;;;0.10;0.10;;;19.20;99.90;;;;;;5005052;28;20191;-83
2023/08/08 08:21:07;;;;;;;0.10;0.10;;;19.30;99.90;;;;;;5005778;28;20570;-84
2023/08/08 08:23:33;;;;;;;0.10;0.10;;;19.40;99.90;;;;;;5006673;28;20191;-82
2023/08/08 08:25:59;;;;;;;0.10;0.10;;;19.50;99.90;;;;;;5004166;28;20234;-81
2023/08/08 08:28:26;;;;;;;0.10;0.10;;;19.50;99.90;;;;;;5005018;28;20187;-81
2023/08/08 08:30:51;;;;;;;0.10;0.10;;;19.60;99.90;;;;;;5003309;28;20198;-80
2023/08/08 08:33:16;;;;;;;0.10;0.10;;;19.70;99.90;;;;;;5005669;28;20194;-80
2023/08/08 08:35:42;;;;;;;0.10;0.10;;;19.80;99.90;;;;;;5003641;28;20455;-80
2023/08/08 08:38:08;;;;;;;0.10;0.10;;;19.80;99.90;;;;;;5008677;28;20224;-80
2023/08/08 08:40:40;;;;;;;0.10;0.10;;;19.90;99.90;;;;;;5007501;28;20245;-80
2023/08/08 08:43:07;;;;;;;0.10;0.10;;;20.00;99.90;;;;;;5007026;28;20709;-80
2023/08/08 08:45:37;;;;;;;0.10;0.10;;;20.00;99.90;;;;;;5007260;28;20269;-80
2023/08/08 08:48:04;;;;;;;0.10;0.10;;;20.10;99.90;;;;;;5007967;28;20186;-81
2023/08/08 08:50:32;;;;;;;0.10;0.10;;;20.10;99.90;;;;;;5005938;28;20234;-80
2023/08/08 08:52:59;;;;;;;0.10;0.10;;;20.20;99.90;;;;;;5008301;28;20201;-81
2023/08/08 08:55:26;;;;;;;0.10;0.10;;;20.10;99.90;;;;;;5021815;28;20193;-81
2023/08/08 08:57:52;;;;;;;0.10;0.10;;;20.20;99.90;;;;;;5005357;28;20206;-81
2023/08/08 09:00:18;;;;;;;0.10;0.10;;;20.20;99.90;;;;;;5005399;28;20269;-81
2023/08/08 09:02:44;;;;;;;0.10;0.10;;;20.20;99.90;;;;;;5005300;28;20187;-81
2023/08/08 09:05:11;;;;;;;0.10;0.10;;;20.10;99.90;;;;;;5022749;28;20190;-81
2023/08/08 09:07:37;;;;;;;0.10;0.10;;;20.10;99.90;;;;;;5007476;28;21209;-82
2023/08/08 09:10:03;;;;;;;0.10;0.10;;;20.10;99.90;;;;;;5007781;28;20184;-81
2023/08/08 09:12:31;;;;;;;0.10;0.10;;;20.20;99.90;;;;;;5006641;28;20196;-81
2023/08/08 09:14:57;;;;;;;0.10;0.10;;;20.20;99.90;;;;;;5021137;28;20198;-81
2023/08/08 09:17:26;;;;;;;0.10;0.10;;;20.30;99.90;;;;;;5004428;28;20612;-82
2023/08/08 09:19:54;;;;;;;0.10;0.10;;;20.50;99.90;;;;;;5005995;28;20190;-85
2023/08/08 09:22:19;;;;;;;0.10;0.10;;;20.80;99.90;;;;;;5005184;28;20269;-82
2023/08/08 09:24:46;;;;;;;0.10;0.10;;;21.10;99.90;;;;;;5006929;28;20278;-83
2023/08/08 09:27:12;;;;;;;0.10;0.10;;;21.40;99.90;;;;;;5007823;28;20210;-84
2023/08/08 09:29:38;;;;;;;0.10;0.10;;;21.30;99.90;;;;;;5003891;28;20179;-83
2023/08/08 09:32:04;;;;;;;0.10;0.10;;;21.40;99.90;;;;;;5006618;28;20199;-83
2023/08/08 09:34:30;;;;;;;0.10;0.10;;;21.60;99.90;;;;;;5006806;28;20191;-83
2023/08/08 09:36:56;;;;;;;0.10;0.10;;;21.50;99.90;;;;;;5006610;28;20222;-85
2023/08/08 09:39:21;;;;;;;0.10;0.10;;;21.60;99.90;;;;;;5003249;28;20191;-84
2023/08/08 09:41:47;;;;;;;0.10;0.10;;;21.60;99.90;;;;;;5018525;28;21111;-84
2023/08/08 09:44:13;;;;;;;0.10;0.10;;;21.60;99.90;;;;;;5002392;28;20183;-84
2023/08/08 09:46:39;;;;;;;0.10;0.10;;;21.70;99.90;;;;;;5003439;28;20692;-84
2023/08/08 09:49:05;;;;;;;0.10;0.10;;;21.60;99.90;;;;;;5004481;28;20819;-80
2023/08/08 09:51:33;;;;;;;0.10;0.10;;;21.80;99.90;;;;;;5007388;28;20199;-81
2023/08/08 09:53:59;;;;;;;0.10;0.10;;;21.80;99.90;;;;;;5007327;28;21006;-80
2023/08/08 09:56:25;;;;;;;0.10;0.10;;;22.10;99.90;;;;;;5021182;28;20206;-81
2023/08/08 09:58:52;;;;;;;0.10;0.10;;;22.20;99.90;;;;;;5004488;28;20217;-81
2023/08/08 10:01:19;;;;;;;0.10;0.10;;;22.20;99.90;;;;;;5004470;28;20207;-81
2023/08/08 10:03:45;;;;;;;0.10;0.10;;;22.00;99.90;;;;;;5005829;28;20180;-81
2023/08/08 10:06:14;;;;;;;0.10;0.10;;;22.00;99.90;;;;;;5003509;28;20218;-81
2023/08/08 10:08:39;;;;;;;0.10;0.10;;;21.90;99.90;;;;;;5004451;28;20262;-81
2023/08/08 10:11:08;;;;;;;0.10;0.10;;;22.10;99.90;;;;;;5002310;28;20251;-81
2023/08/08 10:13:35;;;;;;;0.10;0.10;;;22.30;99.90;;;;;;5003928;28;20560;-81
2023/08/08 10:16:08;;;;;;;0.10;0.10;;;22.20;99.90;;;;;;5006676;28;21303;-81
2023/08/08 10:18:33;;;;;;;0.10;0.10;;;22.30;99.90;;;;;;5004449;28;20187;-81
2023/08/08 10:20:59;;;;;;;0.10;0.10;;;22.30;99.90;;;;;;5004740;28;20269;-81
2023/08/08 10:23:26;;;;;;;0.10;0.10;;;22.20;99.90;;;;;;5004195;28;20183;-81
2023/08/08 10:25:55;;;;;;;0.10;0.10;;;22.30;99.90;;;;;;5001998;28;20207;-81
2023/08/08 10:28:21;;;;;;;0.10;0.10;;;22.20;99.90;;;;;;5003483;28;20274;-81
2023/08/08 10:30:52;;;;;;;0.10;0.10;;;22.20;99.90;;;;;;5002259;28;20194;-81
2023/08/08 10:33:17;;;;;;;0.10;0.10;;;22.20;99.90;;;;;;5018822;28;20183;-81
2023/08/08 10:35:58;;;;;;;0.10;0.10;;;22.00;99.90;;;;;;5003135;28;20735;-81
2023/08/08 10:38:24;;;;;;;0.10;0.10;;;21.90;99.90;;;;;;5002815;28;20652;-81
2023/08/08 10:40:59;;;;;;;0.10;0.10;;;22.10;99.90;;;;;;5001008;28;20980;-81
2023/08/08 10:43:30;;;;;;;0.10;0.10;;;22.30;99.90;;;;;;5016987;28;20179;-81
2023/08/08 10:46:03;;;;;;;0.10;0.10;;;22.10;99.90;;;;;;5002354;28;20207;-81
2023/08/08 10:48:28;;;;;;;0.10;0.10;;;22.00;99.90;;;;;;5003243;28;20191;-81
2023/08/08 10:51:01;;;;;;;0.10;0.10;;;22.00;99.90;;;;;;5002332;28;20206;-81
2023/08/08 10:53:28;;;;;;;0.10;0.10;;;22.00;99.90;;;;;;5003756;28;20187;-81
2023/08/08 10:55:59;;;;;;;0.10;0.10;;;22.00;99.90;;;;;;5002284;28;20211;-81
2023/08/08 10:58:35;;;;;;;0.10;0.10;;;22.30;99.90;;;;;;5003402;28;20241;-81
2023/08/08 11:01:01;;;;;;;0.10;0.10;;;22.30;99.90;;;;;;5004911;28;20248;-81
2023/08/08 11:03:29;;;;;;;0.10;0.10;;;22.40;99.90;;;;;;5018940;28;20194;-81
2023/08/08 11:05:55;;;;;;;0.10;0.10;;;22.10;99.90;;;;;;5020133;28;20217;-81
2023/08/08 11:08:22;;;;;;;0.10;0.10;;;21.90;99.90;;;;;;5003629;28;20195;-82
2023/08/08 11:10:52;;;;;;;0.10;0.10;;;22.10;99.90;;;;;;5024916;28;20253;-81
2023/08/08 11:13:17;;;;;;;0.10;0.10;;;22.20;99.90;;;;;;5009452;28;20225;-81
2023/08/08 11:15:43;;;;;;;0.10;0.10;;;22.10;99.90;;;;;;5008253;28;20265;-81
2023/08/08 11:18:09;;;;;;;0.10;0.10;;;21.90;99.90;;;;;;5009057;28;20660;-80
2023/08/08 11:20:36;;;;;;;0.10;0.10;;;21.90;99.90;;;;;;5009498;28;20241;-81
2023/08/08 11:23:02;;;;;;;0.10;0.10;;;22.10;99.90;;;;;;5024072;28;20286;-81
2023/08/08 11:25:29;;;;;;;0.10;0.10;;;22.10;99.90;;;;;;5008593;28;20270;-81
2023/08/08 11:27:56;;;;;;;0.10;0.10;;;22.00;99.90;;;;;;5007899;28;20190;-81
2023/08/08 11:30:23;;;;;;;0.10;0.10;;;22.10;99.90;;;;;;5006463;28;20230;-81
2023/08/08 11:32:50;;;;;;;0.10;0.10;;;22.00;99.90;;;;;;5024371;28;20183;-81
2023/08/08 11:35:22;;;;;;;0.10;0.10;;;22.10;99.90;;;;;;5007945;28;20183;-81
2023/08/08 11:37:48;;;;;;;0.10;0.10;;;22.10;99.90;;;;;;5008389;28;20195;-80
2023/08/08 11:40:15;;;;;;;0.10;0.10;;;22.20;99.90;;;;;;5007768;28;20854;-80
2023/08/08 11:42:42;;;;;;;0.10;0.10;;;22.10;99.90;;;;;;5022489;28;20186;-81
2023/08/08 11:45:14;;;;;;;0.10;0.10;;;22.10;99.90;;;;;;5006222;28;20645;-81
2023/08/08 11:47:40;;;;;;;0.10;0.10;;;22.10;99.90;;;;;;5022847;28;20186;-81
2023/08/08 11:50:08;;;;;;;0.10;0.10;;;21.90;99.90;;;;;;5005723;28;20202;-81
2023/08/08 11:52:39;;;;;;;0.10;0.10;;;22.20;99.90;;;;;;5022836;28;20179;-81
2023/08/08 11:55:06;;;;;;;0.10;0.10;;;22.20;99.90;;;;;;5006235;28;20318;-81
2023/08/08 11:57:33;;;;;;;0.10;0.10;;;22.20;99.90;;;;;;5023837;28;20206;-81
2023/08/08 11:59:58;;;;;;;0.10;0.10;;;22.20;99.90;;;;;;5024041;28;20180;-80
2023/08/08 12:02:26;;;;;;;0.10;0.10;;;22.30;99.90;;;;;;5012291;28;20237;-81
2023/08/08 12:04:52;;;;;;;0.10;0.10;;;22.10;99.90;;;;;;5028267;28;20369;-81
2023/08/08 12:07:19;;;;;;;0.10;0.10;;;22.40;99.90;;;;;;5028275;28;20311;-82
2023/08/08 12:09:47;;;;;;;0.10;0.10;;;22.30;99.90;;;;;;5012609;28;20190;-82
2023/08/08 12:12:13;;;;;;;0.10;0.10;;;22.50;99.90;;;;;;5015528;28;20276;-82
2023/08/08 12:14:41;;;;;;;0.10;0.10;;;22.50;99.90;;;;;;5015775;28;20251;-82
2023/08/08 12:17:08;;;;;;;0.10;0.10;;;22.70;99.90;;;;;;5015483;28;20226;-82
2023/08/08 12:19:34;;;;;;;0.10;0.10;;;22.70;99.90;;;;;;5016229;28;20193;-83
2023/08/08 12:21:59;;;;;;;0.10;0.10;;;22.60;99.90;;;;;;5007621;28;20206;-83
2023/08/08 12:24:25;;;;;;;0.10;0.10;;;22.50;99.90;;;;;;5007233;28;20194;-83
2023/08/08 12:26:50;;;;;;;0.10;0.10;;;22.50;99.90;;;;;;5005552;28;20218;-82
2023/08/08 12:29:16;;;;;;;0.10;0.10;;;22.80;99.90;;;;;;5005690;28;20195;-82
2023/08/08 12:31:41;;;;;;;0.10;0.10;;;22.90;99.90;;;;;;5004913;28;20273;-81
2023/08/08 12:34:07;;;;;;;0.10;0.10;;;22.90;99.90;;;;;;5007162;28;20187;-82
2023/08/08 12:36:33;;;;;;;0.10;0.10;;;22.80;99.90;;;;;;5010369;28;20581;-82
2023/08/08 12:38:59;;;;;;;0.10;0.10;;;22.70;99.90;;;;;;5009185;28;21096;-82
2023/08/08 12:41:24;;;;;;;0.10;0.10;;;22.70;99.90;;;;;;5023698;28;20207;-82
2023/08/08 12:43:51;;;;;;;0.10;0.10;;;22.70;99.90;;;;;;5011567;28;20214;-82